createdAt,value
2022-12-31T00:01:46.951Z,97470.59
2022-12-31T00:04:13.597Z,97500.59
2022-12-31T00:06:40.213Z,97494.13
2022-12-31T00:09:08.105Z,97479.84
2022-12-31T00:11:37.455Z,97482.66
2022-12-31T00:14:04.980Z,97468.69
2022-12-31T00:16:36.742Z,97509.59
2022-12-31T00:19:07.005Z,97498.72
2022-12-31T00:21:35.036Z,97498.06
2022-12-31T00:24:02.468Z,97490.00
2022-12-31T00:26:31.137Z,97477.22
2022-12-31T09:35:30.522Z,97825.84
2022-12-31T09:38:30.409Z,97807.53
2022-12-31T09:41:36.571Z,97811.34
2022-12-31T09:44:53.025Z,97823.00
2022-12-31T09:47:53.992Z,97821.66
2022-12-31T09:50:57.571Z,97827.91
2022-12-31T09:53:40.779Z,97813.16
2022-12-31T09:56:35.346Z,97825.63
2022-12-31T09:59:10.521Z,97779.38
2022-12-31T10:01:59.834Z,97821.38
2022-12-31T10:04:49.701Z,97824.94
2022-12-31T10:07:28.308Z,97840.31
2022-12-31T10:10:13.225Z,97828.06
2022-12-31T10:13:21.054Z,97834.66
2022-12-31T10:16:28.898Z,97846.91
2022-12-31T10:19:26.731Z,97824.19
2022-12-31T10:21:53.352Z,97842.38
2022-12-31T10:24:50.676Z,97801.47
2022-12-31T10:27:33.304Z,97796.25
2022-12-31T10:30:16.878Z,97830.13
2022-12-31T10:33:16.563Z,97824.41
2022-12-31T10:35:56.145Z,97794.63
2022-12-31T10:38:34.083Z,97801.97
2022-12-31T10:41:41.879Z,97827.91
2022-12-31T10:44:08.520Z,97828.78
2022-12-31T10:46:53.528Z,97831.44
2022-12-31T10:49:29.015Z,97837.69
2022-12-31T10:52:18.035Z,97811.13
2022-12-31T10:55:02.733Z,97837.06
2022-12-31T10:57:44.710Z,97831.81
2022-12-31T11:00:19.957Z,97817.31
2022-12-31T11:03:37.076Z,97836.94
2022-12-31T11:06:27.053Z,97801.88
2022-12-31T11:08:57.931Z,97821.75
2022-12-31T11:11:55.050Z,97817.56
2022-12-31T11:14:39.614Z,97815.34
2022-12-31T11:17:21.107Z,97797.00
2022-12-31T11:20:12.317Z,97809.66
2022-12-31T11:22:58.452Z,97807.91
2022-12-31T11:25:34.133Z,97789.16
2022-12-31T11:28:06.722Z,97819.28
2022-12-31T11:30:42.240Z,97808.13
2022-12-31T11:33:36.036Z,97819.25
2022-12-31T11:36:30.089Z,97807.91
2022-12-31T11:39:35.598Z,97809.47
2022-12-31T11:42:14.825Z,97784.56
2022-12-31T11:44:57.493Z,97795.03
2022-12-31T11:48:04.223Z,97811.31
2022-12-31T11:51:00.131Z,97804.13
2022-12-31T11:53:26.601Z,97804.31
2022-12-31T11:55:59.189Z,97782.94
2022-12-31T11:58:29.508Z,97791.22
2022-12-31T12:01:00.930Z,97799.53
2022-12-31T12:03:28.171Z,97776.88
2022-12-31T12:05:57.499Z,97785.47
2022-12-31T12:08:25.787Z,97764.66
2022-12-31T12:11:05.199Z,97778.69
2022-12-31T12:13:33.483Z,97756.59
2022-12-31T12:16:03.488Z,97762.16
2022-12-31T12:18:36.955Z,97782.66
2022-12-31T12:21:25.271Z,97778.66
2022-12-31T12:23:55.472Z,97782.72
2022-12-31T12:26:36.841Z,97757.44
2022-12-31T12:29:18.630Z,97768.88
2022-12-31T12:32:00.518Z,97762.41
2022-12-31T12:34:37.344Z,97754.44
2022-12-31T12:37:04.887Z,97773.69
2022-12-31T12:39:34.490Z,97767.47
2022-12-31T12:42:10.427Z,97741.09
2022-12-31T12:44:37.440Z,97762.13
2022-12-31T12:47:06.916Z,97757.16
2022-12-31T12:49:43.971Z,97776.13
2022-12-31T12:52:42.976Z,97773.59
2022-12-31T12:55:41.107Z,97748.97
2022-12-31T12:58:07.653Z,97768.16
2022-12-31T13:00:40.232Z,97765.09
2022-12-31T13:03:21.968Z,97777.69
2022-12-31T13:05:57.259Z,97776.97
2022-12-31T13:08:45.557Z,97777.78
2022-12-31T13:11:28.661Z,97786.91
2022-12-31T13:14:06.381Z,97755.28
2022-12-31T13:16:46.335Z,97775.13
2022-12-31T13:20:00.806Z,97778.63
2022-12-31T13:22:56.319Z,97768.00
2022-12-31T13:25:37.336Z,97746.91
2022-12-31T13:28:09.857Z,97750.50
2022-12-31T13:30:42.528Z,97751.25
2022-12-31T13:33:23.852Z,97767.41
2022-12-31T13:36:03.502Z,97736.66
2022-12-31T13:38:36.663Z,97752.38
2022-12-31T13:41:26.128Z,97761.03
2022-12-31T13:44:11.109Z,97763.66
2022-12-31T13:46:44.356Z,97754.31
2022-12-31T13:49:33.628Z,97760.41
2022-12-31T13:52:26.220Z,97771.34
2022-12-31T13:55:09.397Z,97762.88
2022-12-31T13:57:38.965Z,97773.25
2022-12-31T14:00:14.371Z,97771.00
2022-12-31T14:02:48.662Z,97750.38
2022-12-31T14:05:30.334Z,97747.72
2022-12-31T14:30:05.248Z,97756.91
2022-12-31T14:32:44.050Z,56916.91
2022-12-31T14:35:39.948Z,56916.91
2022-12-31T14:38:15.404Z,56916.91
2022-12-31T14:40:41.959Z,56916.91
2022-12-31T14:43:11.478Z,56916.91
2022-12-31T14:45:56.272Z,56916.91
2022-12-31T14:48:44.298Z,56916.91
2022-12-31T14:51:13.030Z,56916.91
2022-12-31T14:53:39.773Z,56916.91
2022-12-31T14:56:27.084Z,56916.91
2022-12-31T14:58:59.401Z,56916.91
2022-12-31T15:01:26.451Z,56916.91
2022-12-31T15:03:58.412Z,56916.91
2022-12-31T15:06:39.933Z,56916.91
2022-12-31T15:09:40.272Z,56916.91
2022-12-31T15:12:17.301Z,56916.91
2022-12-31T15:15:02.515Z,56916.91
2022-12-31T15:17:32.021Z,56916.91
2022-12-31T15:20:18.415Z,56916.91
2022-12-31T15:22:50.665Z,56916.91
2022-12-31T15:25:28.630Z,56916.91
2022-12-31T15:27:57.652Z,56916.91
2022-12-31T15:30:49.633Z,56916.91
2022-12-31T15:33:38.490Z,56916.91
2022-12-31T15:36:35.735Z,56916.91
2022-12-31T15:39:11.579Z,56916.91
2022-12-31T15:42:27.294Z,56916.91
2022-12-31T15:44:42.504Z,56916.91
2022-12-31T15:47:17.842Z,56916.91
2022-12-31T15:49:47.470Z,56916.91
2022-12-31T15:52:20.778Z,56916.91
2022-12-31T15:54:57.171Z,56916.91
2022-12-31T15:57:32.733Z,56916.91
2022-12-31T16:00:02.037Z,56916.91
2022-12-31T16:02:31.756Z,56916.91
2022-12-31T16:04:58.735Z,56916.91
2022-12-31T16:07:27.861Z,56916.91
2022-12-31T16:09:58.487Z,56916.91
2022-12-31T16:12:33.555Z,56916.91
2022-12-31T16:15:02.064Z,56916.91
2022-12-31T16:17:36.885Z,56916.91
2022-12-31T16:20:25.663Z,56916.91
2022-12-31T16:23:01.510Z,56916.91
2022-12-31T16:25:32.263Z,56916.91
2022-12-31T16:28:03.435Z,56916.91
2022-12-31T16:30:35.962Z,56916.91
2022-12-31T16:33:05.459Z,56916.91
2022-12-31T16:35:37.151Z,56916.91
2022-12-31T16:38:15.652Z,56916.91
2022-12-31T16:41:00.663Z,56916.91
2022-12-31T16:43:34.676Z,56916.91
2022-12-31T16:46:31.758Z,56916.91
2022-12-31T16:49:02.922Z,56916.91
2022-12-31T16:51:32.565Z,56916.91
2022-12-31T16:54:01.376Z,56916.91
2022-12-31T16:56:39.385Z,56916.91
2022-12-31T16:59:29.296Z,56916.91
2022-12-31T17:02:03.369Z,56916.91
2022-12-31T17:04:30.385Z,56916.91
2022-12-31T17:07:43.044Z,56916.91
2022-12-31T17:10:09.591Z,56916.91
2022-12-31T17:13:24.952Z,56916.91
2022-12-31T17:15:42.786Z,56916.91
2022-12-31T17:18:20.726Z,56916.91
2022-12-31T17:20:50.043Z,56916.91
2022-12-31T17:23:24.807Z,56916.91
2022-12-31T17:26:02.610Z,56916.91
2022-12-31T17:28:38.261Z,56916.91
2022-12-31T17:31:32.633Z,56916.91
2022-12-31T17:34:14.524Z,56916.91
2022-12-31T17:36:54.424Z,56916.91
2022-12-31T17:39:23.695Z,56916.91
2022-12-31T17:41:53.117Z,56916.91
2022-12-31T17:44:29.274Z,56916.91
2022-12-31T17:46:56.006Z,56916.91
2022-12-31T17:49:28.629Z,56916.91
2022-12-31T17:51:55.424Z,56916.91
2022-12-31T17:54:22.071Z,56916.91
2022-12-31T17:56:48.883Z,56916.91
2022-12-31T17:59:22.731Z,56916.91
2022-12-31T18:01:49.974Z,56916.91
2022-12-31T18:04:18.375Z,56916.91
2022-12-31T18:06:45.529Z,56916.91
2022-12-31T18:09:12.240Z,56916.91
2022-12-31T18:11:40.219Z,56916.91
2022-12-31T18:14:07.280Z,56916.91
2022-12-31T18:16:34.319Z,56916.91
2022-12-31T18:19:01.339Z,56916.91
2022-12-31T18:21:30.679Z,56916.91
2022-12-31T18:26:24.561Z,56916.91
2022-12-31T18:28:54.492Z,56916.91
2022-12-31T18:31:27.475Z,56916.91
2022-12-31T18:33:56.271Z,56916.91
2022-12-31T18:36:24.679Z,56916.91
2022-12-31T18:43:11.427Z,56916.91
2022-12-31T18:45:38.056Z,56916.91
2022-12-31T18:48:04.764Z,56916.91
2022-12-31T18:50:31.388Z,56916.91
2022-12-31T18:52:58.011Z,56916.91
2022-12-31T18:59:25.463Z,56916.91
2022-12-31T19:06:14.232Z,56916.91
2022-12-31T19:08:41.197Z,56916.91
2022-12-31T19:11:13.711Z,56916.91
2022-12-31T19:13:43.272Z,56916.91
2022-12-31T19:16:35.725Z,56916.91
2022-12-31T19:19:08.740Z,56916.91
2022-12-31T19:21:35.478Z,56916.91
2022-12-31T19:24:02.160Z,56916.91
2022-12-31T19:26:29.739Z,56916.91
2022-12-31T19:28:56.375Z,56916.91
2022-12-31T19:31:23.032Z,56916.91
2022-12-31T19:33:50.110Z,56916.91
2022-12-31T19:36:18.469Z,56916.91
2022-12-31T19:38:45.626Z,56916.91
2022-12-31T19:41:18.339Z,56916.91
2022-12-31T19:43:45.899Z,56916.91
2022-12-31T19:46:19.731Z,56916.91
2022-12-31T19:48:46.634Z,56916.91
2022-12-31T19:51:18.918Z,56916.91
2022-12-31T19:53:47.095Z,56916.91
2022-12-31T19:56:17.699Z,56916.91
2022-12-31T20:02:41.184Z,56916.91
2022-12-31T20:05:10.406Z,56916.91
2022-12-31T20:07:37.189Z,56916.91
2022-12-31T20:10:05.357Z,56916.91
2022-12-31T20:12:34.082Z,56916.91
2022-12-31T20:16:07.425Z,56916.91
2022-12-31T20:18:35.719Z,56916.91
2022-12-31T20:21:02.317Z,56916.91
2022-12-31T20:23:28.939Z,56916.91
2022-12-31T20:25:59.520Z,56916.91
2022-12-31T20:28:26.876Z,56916.91
2022-12-31T20:30:53.807Z,56916.91
2022-12-31T20:33:20.535Z,56916.91
2022-12-31T20:35:47.123Z,56916.91
2022-12-31T20:38:14.079Z,56916.91
2022-12-31T20:40:46.473Z,56916.91
2022-12-31T20:43:13.467Z,56916.91
2022-12-31T20:45:41.088Z,56916.91
2022-12-31T20:48:07.845Z,56916.91
2022-12-31T20:50:34.508Z,56916.91
2022-12-31T20:53:01.277Z,56916.91
2022-12-31T20:55:27.909Z,56916.91
2022-12-31T20:57:54.592Z,56916.91
2022-12-31T21:00:21.361Z,56916.91
2022-12-31T21:02:56.388Z,56916.91
2022-12-31T21:05:27.352Z,56916.91
2022-12-31T21:07:54.144Z,56916.91
2022-12-31T21:10:20.753Z,56916.91
2022-12-31T21:12:53.208Z,56916.91
2022-12-31T21:15:20.675Z,56916.91
2022-12-31T21:17:47.391Z,56916.91
2022-12-31T21:20:14.014Z,56916.91
2022-12-31T21:22:40.667Z,56916.91
2022-12-31T21:25:07.643Z,56916.91
2022-12-31T21:27:35.812Z,56916.91
2022-12-31T21:30:18.163Z,56916.91
2022-12-31T21:32:45.953Z,56916.91
2022-12-31T21:35:41.594Z,56916.91
2022-12-31T21:38:06.846Z,56916.91
2022-12-31T21:40:34.247Z,56916.91
2022-12-31T21:43:00.953Z,56916.91
2022-12-31T21:45:27.672Z,56916.91
2022-12-31T21:48:12.551Z,56916.91
2022-12-31T21:50:39.163Z,56916.91
2022-12-31T21:53:05.879Z,56916.91
2022-12-31T21:55:51.048Z,56916.91
2022-12-31T21:58:26.819Z,56916.91
2022-12-31T22:01:14.775Z,56916.91
2022-12-31T22:03:41.861Z,56916.91
2022-12-31T22:06:14.605Z,56916.91
2022-12-31T22:08:43.249Z,56916.91
2022-12-31T22:11:11.611Z,56916.91
2022-12-31T22:13:38.836Z,56916.91
2022-12-31T22:16:06.449Z,56916.91
2022-12-31T22:18:35.613Z,56916.91
2022-12-31T22:21:09.630Z,56916.91
2022-12-31T22:23:41.604Z,56916.91
2022-12-31T22:26:11.049Z,56916.91
2022-12-31T22:28:40.703Z,56916.91
2022-12-31T22:31:14.794Z,56916.91
2022-12-31T22:33:42.089Z,56916.91
2022-12-31T22:36:12.613Z,56916.91
2022-12-31T22:38:39.294Z,56916.91
2022-12-31T22:41:07.641Z,56916.91
2022-12-31T22:43:37.083Z,56916.91
2022-12-31T22:46:25.981Z,56916.91
2022-12-31T22:48:56.407Z,56916.91
2022-12-31T22:51:23.088Z,56916.91
2022-12-31T22:53:49.701Z,56916.91
2022-12-31T22:56:18.078Z,56916.91
2022-12-31T22:58:45.563Z,56916.91
2022-12-31T23:01:24.440Z,56916.91
2022-12-31T23:03:53.379Z,56916.91
2022-12-31T23:06:22.100Z,56916.91
2022-12-31T23:09:08.781Z,56916.91
2022-12-31T23:11:37.354Z,56916.91
2022-12-31T23:14:22.990Z,56916.91
2022-12-31T23:17:31.578Z,56916.91
2022-12-31T23:20:12.844Z,56916.91
2022-12-31T23:22:57.795Z,56916.91
2022-12-31T23:25:24.387Z,56916.91
2022-12-31T23:27:51.039Z,56916.91
2022-12-31T23:30:17.744Z,56916.91
2022-12-31T23:32:44.338Z,56916.91
2022-12-31T23:35:11.062Z,56916.91
2022-12-31T23:37:37.665Z,56916.91
2022-12-31T23:40:04.837Z,56916.91
2022-12-31T23:42:31.413Z,56916.91
2022-12-31T23:44:58.061Z,56916.91
2022-12-31T23:47:24.731Z,56916.91
2022-12-31T23:49:51.330Z,56916.91
2022-12-31T23:52:17.994Z,56916.91
2022-12-31T23:54:44.555Z,56916.91
2022-12-31T23:57:11.225Z,56916.91
2022-12-31T23:59:37.832Z,56916.91
